Time;durP1;ratioP1;P1;durP2;ratioP2;P2;SDS_P1;SDS_P2;PMS_P1;PMS_P2;Temp;Humidity;BMP_temperature;BMP_pressure;BME280_temperature;BME280_humidity;BME280_pressure;Samples;Min_cycle;Max_cycle;Signal;HPM_P1;HPM_P2
2021/01/22 00:04:13;;;;;;;8.38;7.12;;;;;;;;;;4957987;28;20893;31
2021/01/22 00:06:39;;;;;;;8.85;6.87;;;;;;;;;;4136935;34;20519;-46
2021/01/22 00:09:05;;;;;;;9.63;7.82;;;;;;;;;;4137489;34;20112;-48
2021/01/22 00:11:31;;;;;;;7.72;6.93;;;;;;;;;;4150919;34;20518;-52
2021/01/22 00:13:57;;;;;;;7.82;7.03;;;;;;;;;;4150662;34;20127;-49
2021/01/22 00:16:23;;;;;;;7.57;6.85;;;;;;;;;;4150580;34;20126;-50
2021/01/22 00:18:49;;;;;;;7.60;6.68;;;;;;;;;;4150652;34;20631;-49
2021/01/22 00:21:15;;;;;;;9.23;7.32;;;;;;;;;;4150510;34;20146;-49
2021/01/22 00:23:40;;;;;;;7.68;6.82;;;;;;;;;;4150533;34;20143;-48
2021/01/22 00:26:06;;;;;;;8.52;7.07;;;;;;;;;;4150730;34;20110;-49
2021/01/22 00:28:33;;;;;;;8.18;7.35;;;;;;;;;;4150517;34;20140;-52
2021/01/22 00:30:59;;;;;;;8.65;7.30;;;;;;;;;;4150477;34;20110;-49
2021/01/22 00:33:25;;;;;;;7.75;6.95;;;;;;;;;;4150482;34;20114;-49
2021/01/22 00:35:51;;;;;;;7.05;6.35;;;;;;;;;;4150751;34;20129;-48
2021/01/22 00:38:17;;;;;;;7.37;6.68;;;;;;;;;;4150478;34;20122;-51
2021/01/22 00:40:43;;;;;;;8.10;7.15;;;;;;;;;;4149948;34;20127;-50
2021/01/22 00:43:09;;;;;;;8.38;7.45;;;;;;;;;;4150434;34;20115;-52
2021/01/22 00:45:34;;;;;;;8.55;7.28;;;;;;;;;;4150346;34;20571;-48
2021/01/22 00:48:00;;;;;;;10.07;8.80;;;;;;;;;;4150623;34;20307;-49
2021/01/22 00:50:26;;;;;;;10.20;9.20;;;;;;;;;;4150743;34;20522;-47
2021/01/22 00:52:52;;;;;;;11.20;9.93;;;;;;;;;;4150670;34;20102;-47
2021/01/22 00:55:18;;;;;;;11.40;10.30;;;;;;;;;;4150247;34;20199;-48
2021/01/22 00:57:44;;;;;;;12.05;10.85;;;;;;;;;;4150388;34;20631;-49
2021/01/22 01:00:11;;;;;;;12.13;10.77;;;;;;;;;;4150582;34;20475;-49
2021/01/22 01:02:36;;;;;;;12.73;10.65;;;;;;;;;;4150355;34;20185;-47
2021/01/22 01:05:03;;;;;;;13.15;11.75;;;;;;;;;;4150068;34;20158;-48
2021/01/22 01:07:30;;;;;;;12.20;11.10;;;;;;;;;;4150177;34;20107;-48
2021/01/22 01:09:55;;;;;;;12.55;11.10;;;;;;;;;;4150111;34;20119;-48
2021/01/22 01:12:21;;;;;;;11.77;10.68;;;;;;;;;;4150252;34;20095;-47
2021/01/22 01:14:47;;;;;;;11.90;10.70;;;;;;;;;;4150139;34;20190;-48
2021/01/22 01:17:13;;;;;;;12.70;11.40;;;;;;;;;;4150119;34;20111;-47
2021/01/22 01:19:39;;;;;;;12.88;11.57;;;;;;;;;;4150136;34;20522;-48
2021/01/22 01:22:05;;;;;;;12.95;11.63;;;;;;;;;;4150059;34;20114;-50
2021/01/22 01:24:31;;;;;;;12.68;11.40;;;;;;;;;;4149921;34;20222;-47
2021/01/22 01:26:56;;;;;;;14.05;12.65;;;;;;;;;;4150188;34;20110;-48
2021/01/22 01:29:22;;;;;;;13.77;12.37;;;;;;;;;;4150011;34;20121;-51
2021/01/22 01:31:48;;;;;;;14.50;13.07;;;;;;;;;;4150061;34;20504;-50
2021/01/22 01:34:14;;;;;;;13.95;12.57;;;;;;;;;;4149807;34;20142;-48
2021/01/22 01:36:40;;;;;;;14.27;12.85;;;;;;;;;;4149984;34;20467;-49
2021/01/22 01:39:06;;;;;;;15.43;13.95;;;;;;;;;;4149962;34;20131;-51
2021/01/22 01:41:32;;;;;;;15.13;13.70;;;;;;;;;;4150269;34;20146;-48
2021/01/22 01:43:58;;;;;;;14.40;13.00;;;;;;;;;;4150118;34;20100;-47
2021/01/22 01:46:23;;;;;;;15.95;14.43;;;;;;;;;;4149783;34;20268;-48
2021/01/22 01:48:49;;;;;;;14.90;13.40;;;;;;;;;;4149840;34;20127;-47
2021/01/22 01:51:16;;;;;;;15.07;13.68;;;;;;;;;;4148624;34;20103;-47
2021/01/22 01:53:41;;;;;;;15.88;14.27;;;;;;;;;;4138451;34;20545;-47
2021/01/22 01:56:07;;;;;;;16.02;14.52;;;;;;;;;;4150385;34;20206;-49
2021/01/22 01:58:33;;;;;;;15.23;13.62;;;;;;;;;;4150372;34;20130;-47
2021/01/22 02:00:59;;;;;;;16.35;14.75;;;;;;;;;;4150337;34;20467;-50
2021/01/22 02:03:25;;;;;;;14.32;12.95;;;;;;;;;;4150486;34;20213;-48
2021/01/22 02:05:51;;;;;;;16.12;14.60;;;;;;;;;;4150388;34;20133;-47
2021/01/22 02:08:17;;;;;;;15.18;13.68;;;;;;;;;;4151562;34;20218;-47
2021/01/22 02:10:43;;;;;;;14.40;12.98;;;;;;;;;;4151533;34;20123;-49
2021/01/22 02:13:09;;;;;;;14.95;13.45;;;;;;;;;;4151666;34;20620;-49
2021/01/22 02:15:35;;;;;;;14.75;13.25;;;;;;;;;;4139042;34;20126;-48
2021/01/22 02:18:00;;;;;;;14.93;13.27;;;;;;;;;;4150488;34;20145;-48
2021/01/22 02:20:45;;;;;;;14.38;12.98;;;;;;;;;;4150153;34;20154;-48
2021/01/22 02:23:12;;;;;;;12.70;11.50;;;;;;;;;;4150413;34;20111;-49
2021/01/22 02:25:40;;;;;;;14.07;12.73;;;;;;;;;;4150149;34;20106;-49
2021/01/22 02:28:13;;;;;;;14.52;13.13;;;;;;;;;;4150437;34;20099;-50
2021/01/22 02:30:43;;;;;;;13.98;12.57;;;;;;;;;;4151778;34;20125;-50
2021/01/22 02:33:10;;;;;;;12.77;11.52;;;;;;;;;;4150173;34;20473;-51
2021/01/22 02:35:36;;;;;;;12.95;11.65;;;;;;;;;;4139126;34;20118;-52
2021/01/22 02:38:02;;;;;;;12.43;11.12;;;;;;;;;;4150322;34;20117;-52
2021/01/22 02:40:28;;;;;;;12.82;11.52;;;;;;;;;;4138763;34;20131;-53
2021/01/22 02:42:54;;;;;;;12.05;10.88;;;;;;;;;;4150356;34;20129;-53
2021/01/22 02:45:19;;;;;;;11.82;10.65;;;;;;;;;;4150199;34;20138;-59
2021/01/22 02:47:47;;;;;;;11.70;10.50;;;;;;;;;;4150052;34;20985;-54
2021/01/22 02:50:16;;;;;;;11.50;10.40;;;;;;;;;;4150109;34;20130;-50
2021/01/22 02:52:42;;;;;;;12.40;11.10;;;;;;;;;;4151397;34;20122;-50
2021/01/22 02:55:10;;;;;;;12.05;10.75;;;;;;;;;;4151211;34;20561;-52
2021/01/22 02:58:02;;;;;;;9.60;6.60;;;;;;;;;;4150016;34;20103;-49
2021/01/22 03:00:32;;;;;;;10.80;5.87;;;;;;;;;;4149984;34;20110;-49
2021/01/22 03:03:25;;;;;;;11.25;6.37;;;;;;;;;;4149869;34;20186;-50
2021/01/22 03:05:51;;;;;;;9.13;6.25;;;;;;;;;;4137963;34;20288;-54
2021/01/22 03:08:19;;;;;;;11.50;5.90;;;;;;;;;;4149995;34;20153;-49
2021/01/22 03:10:45;;;;;;;9.60;6.12;;;;;;;;;;4151201;34;20180;-50
2021/01/22 03:13:11;;;;;;;9.77;8.77;;;;;;;;;;4149972;34;20094;-49
2021/01/22 03:15:37;;;;;;;9.65;8.73;;;;;;;;;;4138786;34;20191;-53
2021/01/22 03:18:13;;;;;;;10.52;9.43;;;;;;;;;;4149985;34;20127;-50
2021/01/22 03:20:41;;;;;;;11.12;10.13;;;;;;;;;;4151252;34;20184;-49
2021/01/22 03:23:06;;;;;;;10.05;9.05;;;;;;;;;;4149974;34;20196;-49
2021/01/22 03:25:32;;;;;;;10.27;9.27;;;;;;;;;;4151099;34;20202;-50
2021/01/22 03:27:58;;;;;;;10.02;9.02;;;;;;;;;;4150931;34;20130;-51
2021/01/22 03:30:24;;;;;;;9.82;8.82;;;;;;;;;;4152118;34;20623;-53
2021/01/22 03:32:50;;;;;;;10.63;9.48;;;;;;;;;;4151247;34;20141;-51
2021/01/22 03:35:17;;;;;;;11.65;10.27;;;;;;;;;;4168689;34;20218;-49
2021/01/22 03:37:43;;;;;;;10.98;9.00;;;;;;;;;;4177742;34;20198;-52
2021/01/22 03:40:09;;;;;;;10.70;9.70;;;;;;;;;;4177898;34;20171;-50
2021/01/22 03:42:35;;;;;;;9.88;8.90;;;;;;;;;;4178164;34;20118;-51
2021/01/22 03:45:01;;;;;;;11.10;9.00;;;;;;;;;;4177568;34;20144;-50
2021/01/22 03:47:27;;;;;;;10.15;8.45;;;;;;;;;;4178007;34;20117;-48
2021/01/22 03:49:53;;;;;;;10.02;9.02;;;;;;;;;;4177586;34;20238;-49
2021/01/22 03:52:19;;;;;;;10.05;9.07;;;;;;;;;;4163503;34;20214;-52
2021/01/22 03:54:45;;;;;;;10.23;8.25;;;;;;;;;;4162607;34;20431;-48
2021/01/22 03:57:10;;;;;;;9.35;8.20;;;;;;;;;;4162323;34;20117;-55
2021/01/22 03:59:36;;;;;;;10.40;8.52;;;;;;;;;;4161668;34;20126;-52
2021/01/22 04:02:02;;;;;;;9.30;8.38;;;;;;;;;;4162187;34;20218;-49
2021/01/22 04:04:28;;;;;;;9.57;8.55;;;;;;;;;;4161973;34;20118;-50
2021/01/22 04:06:54;;;;;;;9.00;8.10;;;;;;;;;;4162111;34;20142;-52
2021/01/22 04:09:20;;;;;;;9.95;8.68;;;;;;;;;;4162032;34;20230;-50
2021/01/22 04:11:46;;;;;;;9.80;7.93;;;;;;;;;;4162136;34;20142;-52
2021/01/22 04:14:12;;;;;;;9.15;8.23;;;;;;;;;;4162290;34;20127;-52
2021/01/22 04:16:37;;;;;;;9.63;8.63;;;;;;;;;;4161153;34;20506;-50
2021/01/22 04:19:03;;;;;;;9.70;8.70;;;;;;;;;;4161967;34;20131;-51
2021/01/22 04:21:29;;;;;;;9.93;8.55;;;;;;;;;;4161851;34;20190;-52
2021/01/22 04:23:55;;;;;;;9.25;8.40;;;;;;;;;;4161809;34;20138;-50
2021/01/22 04:26:21;;;;;;;9.10;8.20;;;;;;;;;;4161879;34;20111;-52
2021/01/22 04:28:47;;;;;;;8.85;7.78;;;;;;;;;;4162629;34;20095;-51
2021/01/22 04:31:12;;;;;;;9.32;8.35;;;;;;;;;;4163993;34;20218;-52
2021/01/22 04:33:38;;;;;;;8.38;7.57;;;;;;;;;;4164203;34;20168;-54
2021/01/22 04:36:04;;;;;;;9.18;7.62;;;;;;;;;;4164134;34;20153;-53
2021/01/22 04:38:30;;;;;;;9.48;8.57;;;;;;;;;;4163839;34;20130;-53
2021/01/22 04:40:57;;;;;;;8.73;7.82;;;;;;;;;;4163928;34;20600;-50
2021/01/22 04:43:23;;;;;;;9.20;8.30;;;;;;;;;;4163780;34;20106;-52
2021/01/22 04:45:48;;;;;;;9.20;8.30;;;;;;;;;;4151273;34;20143;-49
2021/01/22 04:48:14;;;;;;;9.23;8.32;;;;;;;;;;4163762;34;20150;-49
2021/01/22 04:50:40;;;;;;;9.68;8.43;;;;;;;;;;4162601;34;20202;-53
2021/01/22 04:53:08;;;;;;;9.43;8.43;;;;;;;;;;4163876;34;20094;-52
2021/01/22 04:55:34;;;;;;;9.45;8.55;;;;;;;;;;4151272;34;20231;-54
2021/01/22 04:58:00;;;;;;;9.70;8.30;;;;;;;;;;4162357;34;20118;-52
2021/01/22 05:00:26;;;;;;;10.73;9.25;;;;;;;;;;4163654;34;20153;-51
2021/01/22 05:02:53;;;;;;;11.70;8.45;;;;;;;;;;4163578;34;20504;-52
2021/01/22 05:05:19;;;;;;;14.38;8.60;;;;;;;;;;4163643;34;20099;-52
2021/01/22 05:07:45;;;;;;;11.30;9.93;;;;;;;;;;4163676;34;20119;-51
2021/01/22 05:10:11;;;;;;;7.97;7.22;;;;;;;;;;4163724;34;20611;-51
2021/01/22 05:12:38;;;;;;;8.52;7.60;;;;;;;;;;4163714;34;20106;-52
2021/01/22 05:15:26;;;;;;;9.18;8.20;;;;;;;;;;4163469;34;20111;-49
2021/01/22 05:17:59;;;;;;;8.50;7.60;;;;;;;;;;4163656;34;20107;-52
2021/01/22 05:20:36;;;;;;;8.75;7.90;;;;;;;;;;4163667;34;20126;-50
2021/01/22 05:23:03;;;;;;;8.65;7.75;;;;;;;;;;4163455;34;20227;-52
2021/01/22 05:25:29;;;;;;;8.45;7.65;;;;;;;;;;4163342;34;20135;-52
2021/01/22 05:27:55;;;;;;;8.77;7.95;;;;;;;;;;4163138;34;20117;-55
2021/01/22 05:30:22;;;;;;;9.80;7.80;;;;;;;;;;4163335;34;20619;-52
2021/01/22 05:32:48;;;;;;;9.50;8.07;;;;;;;;;;4163349;34;20530;-50
2021/01/22 05:35:27;;;;;;;8.80;7.93;;;;;;;;;;4163403;34;20122;-52
2021/01/22 05:37:52;;;;;;;8.95;8.02;;;;;;;;;;4163241;34;20613;-49
2021/01/22 05:40:19;;;;;;;8.13;7.32;;;;;;;;;;4163271;34;20123;-50
2021/01/22 05:42:55;;;;;;;9.05;8.15;;;;;;;;;;4163412;34;20130;-52
2021/01/22 05:45:39;;;;;;;9.48;8.10;;;;;;;;;;4163107;34;20122;-52
2021/01/22 05:48:34;;;;;;;10.90;8.18;;;;;;;;;;4163131;34;20536;-52
2021/01/22 05:51:00;;;;;;;10.93;8.00;;;;;;;;;;4150232;34;20103;-52
2021/01/22 05:53:27;;;;;;;8.90;7.90;;;;;;;;;;4162998;34;20194;-52
2021/01/22 05:56:12;;;;;;;9.43;8.30;;;;;;;;;;4163148;34;20100;-51
2021/01/22 05:58:39;;;;;;;10.03;8.40;;;;;;;;;;4163051;34;20563;-51
2021/01/22 06:01:08;;;;;;;9.93;8.10;;;;;;;;;;4162899;34;20134;-52
2021/01/22 06:03:34;;;;;;;9.57;8.57;;;;;;;;;;4163160;34;20095;-50
2021/01/22 06:06:01;;;;;;;9.68;8.65;;;;;;;;;;4162770;34;20103;-51
2021/01/22 06:08:27;;;;;;;9.88;8.82;;;;;;;;;;4162792;34;20126;-49
2021/01/22 06:10:53;;;;;;;10.15;9.02;;;;;;;;;;4150288;34;20095;-51
2021/01/22 06:13:26;;;;;;;10.43;8.90;;;;;;;;;;4162817;34;20184;-51
2021/01/22 06:15:56;;;;;;;10.98;8.27;;;;;;;;;;4162907;34;20137;-49
2021/01/22 06:18:31;;;;;;;9.13;8.23;;;;;;;;;;4162819;34;20134;-52
2021/01/22 06:21:19;;;;;;;8.98;8.07;;;;;;;;;;4163089;34;20292;-49
2021/01/22 06:23:45;;;;;;;9.55;8.50;;;;;;;;;;4150966;34;20561;-50
2021/01/22 06:26:11;;;;;;;11.18;8.70;;;;;;;;;;4162975;34;20119;-50
2021/01/22 06:28:37;;;;;;;10.70;8.57;;;;;;;;;;4149941;34;20129;-49
2021/01/22 06:31:04;;;;;;;11.15;8.77;;;;;;;;;;4162708;34;20239;-54
2021/01/22 06:33:29;;;;;;;11.00;9.13;;;;;;;;;;4150133;34;20122;-52
2021/01/22 06:35:55;;;;;;;12.45;9.98;;;;;;;;;;4162635;34;20115;-52
2021/01/22 06:38:22;;;;;;;12.50;8.88;;;;;;;;;;4138938;34;20130;-53
2021/01/22 06:40:51;;;;;;;11.85;9.95;;;;;;;;;;4164794;34;20110;-52
2021/01/22 06:43:18;;;;;;;14.20;10.07;;;;;;;;;;4165031;34;20605;-52
2021/01/22 06:45:44;;;;;;;14.65;10.25;;;;;;;;;;4152419;34;20463;-49
2021/01/22 06:48:10;;;;;;;13.90;10.27;;;;;;;;;;4164699;34;20122;-51
2021/01/22 06:50:37;;;;;;;12.75;10.27;;;;;;;;;;4164723;34;20134;-50
2021/01/22 06:53:04;;;;;;;13.02;10.13;;;;;;;;;;4164694;34;20126;-53
2021/01/22 06:55:30;;;;;;;12.90;10.43;;;;;;;;;;4164617;34;20448;-49
2021/01/22 06:58:27;;;;;;;13.57;9.90;;;;;;;;;;4164650;34;20107;-49
2021/01/22 07:00:54;;;;;;;14.50;10.35;;;;;;;;;;4164569;34;20146;-50
2021/01/22 07:03:46;;;;;;;12.10;9.55;;;;;;;;;;4164567;34;20492;-49
2021/01/22 07:06:47;;;;;;;15.00;9.25;;;;;;;;;;4162631;34;20131;-48
2021/01/22 07:09:18;;;;;;;11.60;9.30;;;;;;;;;;4163288;34;20291;-52
2021/01/22 07:11:54;;;;;;;12.63;9.20;;;;;;;;;;4151962;34;20199;-49
2021/01/22 07:14:34;;;;;;;13.75;9.25;;;;;;;;;;4164515;34;20106;-52
2021/01/22 07:17:04;;;;;;;11.10;9.20;;;;;;;;;;4164681;34;20118;-51
2021/01/22 07:19:30;;;;;;;12.73;9.63;;;;;;;;;;4164349;34;20134;-52
2021/01/22 07:21:56;;;;;;;16.33;10.07;;;;;;;;;;4164585;34;20125;-49
2021/01/22 07:24:22;;;;;;;15.27;10.93;;;;;;;;;;4151549;34;20123;-51
2021/01/22 07:26:50;;;;;;;15.65;10.70;;;;;;;;;;4151840;34;20122;-52
2021/01/22 07:29:17;;;;;;;15.85;11.70;;;;;;;;;;4164559;34;20091;-50
2021/01/22 07:31:51;;;;;;;17.33;13.43;;;;;;;;;;4152037;34;20214;-50
2021/01/22 07:34:48;;;;;;;16.92;12.82;;;;;;;;;;4164346;34;20122;-50
2021/01/22 07:37:21;;;;;;;20.75;14.38;;;;;;;;;;4164413;34;20126;-49
2021/01/22 07:39:48;;;;;;;19.95;13.82;;;;;;;;;;4164355;34;20122;-51
2021/01/22 07:42:24;;;;;;;21.70;16.15;;;;;;;;;;4164333;34;20114;-49
2021/01/22 07:44:51;;;;;;;21.12;14.15;;;;;;;;;;4164160;34;20123;-50
2021/01/22 07:47:30;;;;;;;23.52;15.77;;;;;;;;;;4164228;34;20111;-49
2021/01/22 07:49:58;;;;;;;18.00;15.07;;;;;;;;;;4164267;34;20454;-51
2021/01/22 07:52:24;;;;;;;19.77;15.55;;;;;;;;;;4164246;34;20142;-48
2021/01/22 07:54:51;;;;;;;20.27;16.42;;;;;;;;;;4151482;34;20468;-52
2021/01/22 07:57:26;;;;;;;21.08;15.75;;;;;;;;;;4164209;34;20141;-50
2021/01/22 07:59:52;;;;;;;20.95;15.43;;;;;;;;;;4164234;34;20182;-50
2021/01/22 08:02:22;;;;;;;19.37;15.80;;;;;;;;;;4164040;34;20119;-51
2021/01/22 08:04:58;;;;;;;19.98;15.02;;;;;;;;;;4164248;34;20105;-50
2021/01/22 08:07:32;;;;;;;;;;;;;;;;;;4164403;34;20192;-48
2021/01/22 08:09:58;;;;;;;12.45;10.43;;;;;;;;;;4164011;34;20524;-52
2021/01/22 08:12:25;;;;;;;15.85;11.73;;;;;;;;;;4164077;34;20127;-52
2021/01/22 08:14:51;;;;;;;15.40;11.80;;;;;;;;;;4151485;34;20222;-49
2021/01/22 08:17:17;;;;;;;12.88;9.80;;;;;;;;;;4163960;34;20106;-49
2021/01/22 08:19:43;;;;;;;12.45;10.40;;;;;;;;;;4140431;34;20166;-49
2021/01/22 08:22:13;;;;;;;14.48;10.10;;;;;;;;;;4151343;34;20119;-49
2021/01/22 08:24:47;;;;;;;10.93;9.25;;;;;;;;;;4151575;34;20126;-51
2021/01/22 08:27:13;;;;;;;9.98;8.77;;;;;;;;;;4163794;34;20106;-52
2021/01/22 08:29:39;;;;;;;9.25;8.27;;;;;;;;;;4163764;34;20106;-54
2021/01/22 08:32:05;;;;;;;10.05;8.52;;;;;;;;;;4163749;34;20107;-49
2021/01/22 08:34:33;;;;;;;11.05;8.07;;;;;;;;;;4163600;34;20109;-50
2021/01/22 08:36:59;;;;;;;8.18;7.22;;;;;;;;;;4151187;34;20122;-48
2021/01/22 08:39:24;;;;;;;9.05;8.15;;;;;;;;;;4163677;34;20173;-52
2021/01/22 08:41:50;;;;;;;8.98;7.30;;;;;;;;;;4163750;34;20213;-57
2021/01/22 08:44:16;;;;;;;9.43;7.30;;;;;;;;;;4150971;34;20239;-51
2021/01/22 08:46:46;;;;;;;9.75;7.87;;;;;;;;;;4162513;34;20234;-49
2021/01/22 08:49:13;;;;;;;10.00;6.78;;;;;;;;;;4163894;34;20106;-51
2021/01/22 08:51:39;;;;;;;7.70;6.90;;;;;;;;;;4163990;34;20208;-50
2021/01/22 08:54:06;;;;;;;8.18;7.20;;;;;;;;;;4163876;34;20138;-52
2021/01/22 08:56:32;;;;;;;7.78;6.78;;;;;;;;;;4163736;34;20425;-52
2021/01/22 08:59:04;;;;;;;7.78;6.65;;;;;;;;;;4163847;34;20117;-49
2021/01/22 09:02:03;;;;;;;7.37;6.68;;;;;;;;;;4163485;34;20118;-51
2021/01/22 09:04:33;;;;;;;8.57;7.25;;;;;;;;;;4140042;34;20195;-54
2021/01/22 09:07:01;;;;;;;8.15;7.32;;;;;;;;;;4163729;34;20106;-52
2021/01/22 09:09:47;;;;;;;7.32;6.62;;;;;;;;;;4163562;34;20177;-52
2021/01/22 09:12:13;;;;;;;9.02;7.78;;;;;;;;;;4162096;34;20098;-50
2021/01/22 09:14:49;;;;;;;8.35;6.85;;;;;;;;;;4162970;34;20083;-52
2021/01/22 09:17:34;;;;;;;8.38;6.87;;;;;;;;;;4163383;34;20122;-50
2021/01/22 09:20:05;;;;;;;8.27;6.85;;;;;;;;;;4163388;34;20102;-50
2021/01/22 09:22:31;;;;;;;7.82;5.78;;;;;;;;;;4163617;34;20119;-55
2021/01/22 09:25:01;;;;;;;8.23;6.28;;;;;;;;;;4163351;34;20282;-54
2021/01/22 09:27:26;;;;;;;9.43;6.80;;;;;;;;;;4163106;34;20110;-49
2021/01/22 09:29:52;;;;;;;7.40;6.18;;;;;;;;;;4163162;34;20562;-49
2021/01/22 09:32:18;;;;;;;7.85;5.68;;;;;;;;;;4163407;34;20119;-50
2021/01/22 09:34:44;;;;;;;7.70;6.62;;;;;;;;;;4162891;34;20130;-52
2021/01/22 09:37:10;;;;;;;6.97;6.20;;;;;;;;;;4163032;34;20107;-50
2021/01/22 09:39:36;;;;;;;8.40;6.97;;;;;;;;;;4163140;34;20127;-50
2021/01/22 09:42:02;;;;;;;9.32;7.45;;;;;;;;;;4163009;34;20275;-52
2021/01/22 09:44:28;;;;;;;7.40;6.05;;;;;;;;;;4163355;34;20535;-52
2021/01/22 09:46:55;;;;;;;7.57;6.75;;;;;;;;;;4163079;34;20123;-52
2021/01/22 09:49:20;;;;;;;8.55;7.15;;;;;;;;;;4163203;34;20125;-51
2021/01/22 09:51:46;;;;;;;8.23;7.30;;;;;;;;;;4162764;34;20131;-52
2021/01/22 09:54:12;;;;;;;8.40;6.87;;;;;;;;;;4162990;34;20118;-50
2021/01/22 09:56:38;;;;;;;7.90;6.93;;;;;;;;;;4162649;34;20103;-50
2021/01/22 09:59:06;;;;;;;7.75;6.68;;;;;;;;;;4162802;34;20195;-49
2021/01/22 10:01:32;;;;;;;7.60;6.18;;;;;;;;;;4162725;34;20557;-52
2021/01/22 10:03:58;;;;;;;9.45;7.75;;;;;;;;;;4163016;34;20127;-53
2021/01/22 10:06:24;;;;;;;7.57;6.60;;;;;;;;;;4162632;34;20133;-49
2021/01/22 10:08:50;;;;;;;10.80;7.60;;;;;;;;;;4162456;34;20134;-57
2021/01/22 10:11:16;;;;;;;10.43;7.15;;;;;;;;;;4162705;34;20574;-50
2021/01/22 10:13:42;;;;;;;10.68;7.75;;;;;;;;;;4163442;34;20095;-49
2021/01/22 10:16:08;;;;;;;9.50;7.50;;;;;;;;;;4164808;34;20134;-50
2021/01/22 10:18:34;;;;;;;9.77;8.02;;;;;;;;;;4164754;34;20098;-49
2021/01/22 10:20:59;;;;;;;12.80;8.95;;;;;;;;;;4164849;34;20107;-48
2021/01/22 10:23:25;;;;;;;10.15;8.05;;;;;;;;;;4165012;34;20141;-50
2021/01/22 10:25:51;;;;;;;10.95;8.48;;;;;;;;;;4164430;34;20122;-51
2021/01/22 10:28:17;;;;;;;10.15;8.55;;;;;;;;;;4164799;34;20305;-49
2021/01/22 10:30:43;;;;;;;8.93;7.93;;;;;;;;;;4164616;34;20137;-53
2021/01/22 10:33:09;;;;;;;9.38;8.27;;;;;;;;;;4164998;34;20102;-50
2021/01/22 10:35:34;;;;;;;9.18;8.13;;;;;;;;;;4164508;34;20117;-48
2021/01/22 10:38:00;;;;;;;10.27;8.30;;;;;;;;;;4164439;34;20220;-52
2021/01/22 10:40:26;;;;;;;12.15;8.23;;;;;;;;;;4164129;34;20484;-51
2021/01/22 10:42:52;;;;;;;11.07;8.32;;;;;;;;;;4164811;34;20126;-54
2021/01/22 10:45:18;;;;;;;9.75;7.90;;;;;;;;;;4164648;34;20483;-49
2021/01/22 10:47:45;;;;;;;8.45;7.60;;;;;;;;;;4164380;34;20142;-52
2021/01/22 10:50:11;;;;;;;10.13;8.10;;;;;;;;;;4164373;34;20234;-49
2021/01/22 10:52:37;;;;;;;10.45;8.38;;;;;;;;;;4164199;34;20308;-56
2021/01/22 10:55:03;;;;;;;9.93;8.20;;;;;;;;;;4164460;34;20444;-49
2021/01/22 10:57:29;;;;;;;9.88;8.88;;;;;;;;;;4164487;34;20096;-50
2021/01/22 10:59:54;;;;;;;12.63;8.90;;;;;;;;;;4164102;34;20529;-50
2021/01/22 11:02:20;;;;;;;10.30;8.82;;;;;;;;;;4164733;34;20107;-51
2021/01/22 11:04:46;;;;;;;11.95;9.13;;;;;;;;;;4164269;34;20158;-50
2021/01/22 11:07:12;;;;;;;11.93;9.75;;;;;;;;;;4164408;34;20238;-51
2021/01/22 11:09:38;;;;;;;10.10;9.07;;;;;;;;;;4164035;34;20126;-54
2021/01/22 11:12:05;;;;;;;11.70;9.20;;;;;;;;;;4163768;34;20123;-55
2021/01/22 11:14:31;;;;;;;9.75;8.68;;;;;;;;;;4164331;34;20199;-51
2021/01/22 11:16:57;;;;;;;10.20;9.13;;;;;;;;;;4164482;34;20142;-51
2021/01/22 11:19:23;;;;;;;12.40;9.00;;;;;;;;;;4164126;34;20118;-48
2021/01/22 11:21:49;;;;;;;10.82;9.05;;;;;;;;;;4164433;34;20158;-48
2021/01/22 11:24:14;;;;;;;11.85;9.50;;;;;;;;;;4164191;34;20118;-49
2021/01/22 11:26:40;;;;;;;12.32;9.80;;;;;;;;;;4164532;34;20109;-55
2021/01/22 11:29:06;;;;;;;12.95;9.88;;;;;;;;;;4163959;34;20125;-53
2021/01/22 11:31:32;;;;;;;11.30;9.15;;;;;;;;;;4164404;34;20137;-51
2021/01/22 11:33:58;;;;;;;15.38;10.13;;;;;;;;;;4164121;34;20126;-53
2021/01/22 11:36:24;;;;;;;13.18;10.07;;;;;;;;;;4164116;34;20218;-54
2021/01/22 11:38:50;;;;;;;12.13;9.57;;;;;;;;;;4164283;34;20162;-54
2021/01/22 11:41:16;;;;;;;14.90;11.43;;;;;;;;;;4164223;34;20123;-56
2021/01/22 11:43:44;;;;;;;15.88;11.10;;;;;;;;;;4163854;34;20660;-52
2021/01/22 11:46:10;;;;;;;16.17;11.80;;;;;;;;;;4163933;34;20517;-51
2021/01/22 11:48:36;;;;;;;14.77;10.32;;;;;;;;;;4163864;34;20125;-50
2021/01/22 11:51:02;;;;;;;13.68;9.80;;;;;;;;;;4163953;34;20111;-50
2021/01/22 11:53:28;;;;;;;12.77;10.05;;;;;;;;;;4163708;34;20110;-49
2021/01/22 11:55:54;;;;;;;13.32;11.45;;;;;;;;;;4163843;34;20455;-49
2021/01/22 11:58:21;;;;;;;15.88;11.48;;;;;;;;;;4163821;34;20119;-50
2021/01/22 12:00:46;;;;;;;18.45;13.32;;;;;;;;;;4163765;34;20095;-60
2021/01/22 12:03:12;;;;;;;20.35;15.10;;;;;;;;;;4164056;34;20114;-56
2021/01/22 12:05:39;;;;;;;18.52;15.25;;;;;;;;;;4163711;34;20130;-57
2021/01/22 12:08:05;;;;;;;19.37;15.13;;;;;;;;;;4164105;34;20127;-52
2021/01/22 12:10:31;;;;;;;18.60;14.23;;;;;;;;;;4164023;34;20107;-52
2021/01/22 12:12:57;;;;;;;18.87;12.65;;;;;;;;;;4163997;34;20172;-52
2021/01/22 12:15:23;;;;;;;15.93;13.10;;;;;;;;;;4163630;34;20130;-49
2021/01/22 12:17:50;;;;;;;18.67;14.45;;;;;;;;;;4155983;34;20118;-58
2021/01/22 12:20:17;;;;;;;16.90;13.85;;;;;;;;;;4155897;34;20609;-60
2021/01/22 12:22:43;;;;;;;19.12;14.63;;;;;;;;;;4153490;34;20127;-59
2021/01/22 12:25:09;;;;;;;18.35;14.77;;;;;;;;;;4155655;34;20099;-57
2021/01/22 12:27:35;;;;;;;17.65;14.35;;;;;;;;;;4177402;34;20198;-56
2021/01/22 12:30:02;;;;;;;22.80;13.98;;;;;;;;;;4176936;34;20632;-58
2021/01/22 12:32:28;;;;;;;20.23;12.50;;;;;;;;;;4177433;34;20110;-54
2021/01/22 12:34:56;;;;;;;19.52;12.77;;;;;;;;;;4177529;34;20122;-54
2021/01/22 12:37:22;;;;;;;16.52;11.85;;;;;;;;;;4176975;34;20130;-51
2021/01/22 12:39:48;;;;;;;18.02;12.07;;;;;;;;;;4176969;34;20122;-57
2021/01/22 12:42:18;;;;;;;15.32;12.65;;;;;;;;;;4176314;34;20133;-57
2021/01/22 12:44:49;;;;;;;25.23;19.48;;;;;;;;;;4176051;34;20142;-60
2021/01/22 12:47:15;;;;;;;18.65;13.77;;;;;;;;;;4175065;34;20538;-58
2021/01/22 12:49:40;;;;;;;12.95;10.27;;;;;;;;;;4175202;34;20134;-58
2021/01/22 12:52:06;;;;;;;13.48;10.75;;;;;;;;;;4175411;34;20128;-54
2021/01/22 12:54:32;;;;;;;14.30;10.70;;;;;;;;;;4174979;34;20122;-58
2021/01/22 12:56:58;;;;;;;12.43;9.23;;;;;;;;;;4175027;34;20113;-59
2021/01/22 12:59:24;;;;;;;14.43;8.80;;;;;;;;;;4174847;34;20137;-58
2021/01/22 13:01:50;;;;;;;12.75;8.68;;;;;;;;;;4176774;34;20106;-58
2021/01/22 13:04:16;;;;;;;10.30;9.18;;;;;;;;;;4177056;34;20117;-58
2021/01/22 13:06:42;;;;;;;13.48;8.73;;;;;;;;;;4176254;34;20118;-58
2021/01/22 13:09:07;;;;;;;11.00;9.30;;;;;;;;;;4177013;34;20126;-56
2021/01/22 13:11:34;;;;;;;13.10;11.35;;;;;;;;;;4177283;34;20105;-57
2021/01/22 13:14:00;;;;;;;8.23;7.43;;;;;;;;;;4177113;34;20098;-57
2021/01/22 13:16:26;;;;;;;10.88;8.43;;;;;;;;;;4177181;34;20126;-57
2021/01/22 13:18:52;;;;;;;10.85;8.80;;;;;;;;;;4161920;34;20099;-60
2021/01/22 13:21:18;;;;;;;11.23;9.10;;;;;;;;;;4158648;34;20111;-68
2021/01/22 13:23:44;;;;;;;10.35;9.35;;;;;;;;;;4153838;34;20114;-57
2021/01/22 13:26:14;;;;;;;10.43;9.18;;;;;;;;;;4161551;34;20207;-56
2021/01/22 13:28:40;;;;;;;12.40;10.75;;;;;;;;;;4149980;34;20091;-55
2021/01/22 13:31:06;;;;;;;13.73;11.20;;;;;;;;;;4148435;34;20300;-56
2021/01/22 13:33:33;;;;;;;13.90;10.95;;;;;;;;;;4148402;34;20106;-56
2021/01/22 13:35:59;;;;;;;12.95;10.57;;;;;;;;;;4148252;34;20560;-53
2021/01/22 13:38:25;;;;;;;15.35;11.20;;;;;;;;;;4147444;34;20111;-59
2021/01/22 13:40:51;;;;;;;15.75;12.90;;;;;;;;;;4158591;34;20115;-57
2021/01/22 13:43:17;;;;;;;15.40;13.77;;;;;;;;;;4161019;34;20130;-58
2021/01/22 13:45:43;;;;;;;12.82;11.07;;;;;;;;;;4175523;34;20193;-57
2021/01/22 13:48:09;;;;;;;11.93;10.52;;;;;;;;;;4176136;34;20110;-57
2021/01/22 13:50:35;;;;;;;11.65;10.45;;;;;;;;;;4176548;34;20117;-56
2021/01/22 13:53:01;;;;;;;9.65;8.60;;;;;;;;;;4166480;34;20110;-56
2021/01/22 13:55:27;;;;;;;11.70;10.50;;;;;;;;;;4174273;34;20193;-56
2021/01/22 13:57:53;;;;;;;13.07;11.77;;;;;;;;;;4176540;34;20153;-56
2021/01/22 14:00:19;;;;;;;18.75;13.55;;;;;;;;;;4176214;34;20548;-57
2021/01/22 14:02:45;;;;;;;20.70;17.20;;;;;;;;;;4176466;34;20107;-56
2021/01/22 14:05:13;;;;;;;23.17;18.85;;;;;;;;;;4176171;34;20124;-57
2021/01/22 14:07:39;;;;;;;22.67;18.45;;;;;;;;;;4174977;34;20166;-58
2021/01/22 14:10:05;;;;;;;19.27;14.40;;;;;;;;;;4172208;34;20519;-58
2021/01/22 14:12:31;;;;;;;11.63;10.52;;;;;;;;;;4163827;34;20510;-58
2021/01/22 14:14:57;;;;;;;14.10;10.63;;;;;;;;;;4176465;34;20102;-57
2021/01/22 14:17:23;;;;;;;13.38;10.88;;;;;;;;;;4163999;34;20427;-58
2021/01/22 14:19:50;;;;;;;12.27;11.00;;;;;;;;;;4176077;34;20118;-58
2021/01/22 14:22:15;;;;;;;15.50;13.98;;;;;;;;;;4176546;34;20138;-54
2021/01/22 14:24:41;;;;;;;16.62;14.98;;;;;;;;;;4167291;34;20098;-61
2021/01/22 14:27:07;;;;;;;18.08;16.37;;;;;;;;;;4151405;34;20154;-60
2021/01/22 14:29:33;;;;;;;24.80;22.40;;;;;;;;;;4162636;34;20141;-58
2021/01/22 14:31:59;;;;;;;40.50;36.42;;;;;;;;;;4159371;34;20127;-57
2021/01/22 14:34:25;;;;;;;26.95;23.85;;;;;;;;;;4162697;34;20487;-58